sensor_id;sensor_type;location;lat;lon;timestamp;P1;durP1;ratioP1;P2;durP2;ratioP2
76373;SDS011;65197;50.164;8.012;2024-02-26T00:01:25;1.92;;;1.33;;
76373;SDS011;65197;50.164;8.012;2024-02-26T00:03:51;1.63;;;1.50;;
76373;SDS011;65197;50.164;8.012;2024-02-26T00:06:17;1.10;;;0.88;;
76373;SDS011;65197;50.164;8.012;2024-02-26T00:08:43;2.33;;;1.10;;
76373;SDS011;65197;50.164;8.012;2024-02-26T00:11:09;1.60;;;0.77;;
76373;SDS011;65197;50.164;8.012;2024-02-26T00:13:35;1.55;;;0.85;;
76373;SDS011;65197;50.164;8.012;2024-02-26T00:16:00;1.67;;;1.02;;
76373;SDS011;65197;50.164;8.012;2024-02-26T00:18:26;2.33;;;0.93;;
76373;SDS011;65197;50.164;8.012;2024-02-26T00:20:51;1.13;;;0.80;;
76373;SDS011;65197;50.164;8.012;2024-02-26T00:23:17;2.15;;;1.38;;
76373;SDS011;65197;50.164;8.012;2024-02-26T00:25:42;2.22;;;1.13;;
76373;SDS011;65197;50.164;8.012;2024-02-26T00:28:08;2.88;;;0.98;;
76373;SDS011;65197;50.164;8.012;2024-02-26T00:30:35;3.45;;;1.15;;
76373;SDS011;65197;50.164;8.012;2024-02-26T00:33:00;1.75;;;1.17;;
76373;SDS011;65197;50.164;8.012;2024-02-26T00:35:26;1.45;;;1.02;;
76373;SDS011;65197;50.164;8.012;2024-02-26T00:37:51;2.15;;;1.13;;
76373;SDS011;65197;50.164;8.012;2024-02-26T00:40:16;1.58;;;1.17;;
76373;SDS011;65197;50.164;8.012;2024-02-26T00:42:42;1.67;;;1.02;;
76373;SDS011;65197;50.164;8.012;2024-02-26T00:45:11;1.33;;;0.82;;
76373;SDS011;65197;50.164;8.012;2024-02-26T00:47:39;1.58;;;1.08;;
76373;SDS011;65197;50.164;8.012;2024-02-26T00:50:10;1.65;;;1.13;;
76373;SDS011;65197;50.164;8.012;2024-02-26T00:52:35;1.50;;;1.20;;
76373;SDS011;65197;50.164;8.012;2024-02-26T00:57:27;1.55;;;1.00;;
76373;SDS011;65197;50.164;8.012;2024-02-26T00:59:52;1.20;;;0.77;;
76373;SDS011;65197;50.164;8.012;2024-02-26T01:02:20;1.63;;;0.90;;
76373;SDS011;65197;50.164;8.012;2024-02-26T01:04:45;1.83;;;0.98;;
76373;SDS011;65197;50.164;8.012;2024-02-26T01:07:10;1.90;;;1.20;;
76373;SDS011;65197;50.164;8.012;2024-02-26T01:09:36;1.70;;;1.00;;
76373;SDS011;65197;50.164;8.012;2024-02-26T01:12:01;2.25;;;0.90;;
76373;SDS011;65197;50.164;8.012;2024-02-26T01:14:28;2.67;;;1.00;;
76373;SDS011;65197;50.164;8.012;2024-02-26T01:16:53;1.15;;;0.77;;
76373;SDS011;65197;50.164;8.012;2024-02-26T01:19:19;1.13;;;0.88;;
76373;SDS011;65197;50.164;8.012;2024-02-26T01:21:44;1.95;;;0.95;;
76373;SDS011;65197;50.164;8.012;2024-02-26T01:24:09;1.25;;;0.77;;
76373;SDS011;65197;50.164;8.012;2024-02-26T01:26:35;1.85;;;1.00;;
76373;SDS011;65197;50.164;8.012;2024-02-26T01:29:01;1.23;;;0.80;;
76373;SDS011;65197;50.164;8.012;2024-02-26T01:31:26;1.73;;;0.90;;
76373;SDS011;65197;50.164;8.012;2024-02-26T01:33:51;2.22;;;0.95;;
76373;SDS011;65197;50.164;8.012;2024-02-26T01:36:17;1.40;;;1.00;;
76373;SDS011;65197;50.164;8.012;2024-02-26T01:38:43;1.63;;;0.80;;
76373;SDS011;65197;50.164;8.012;2024-02-26T01:41:08;0.90;;;0.80;;
76373;SDS011;65197;50.164;8.012;2024-02-26T01:43:33;1.65;;;0.98;;
76373;SDS011;65197;50.164;8.012;2024-02-26T01:45:59;1.23;;;0.80;;
76373;SDS011;65197;50.164;8.012;2024-02-26T01:48:26;2.97;;;1.15;;
76373;SDS011;65197;50.164;8.012;2024-02-26T01:50:51;2.60;;;1.02;;
76373;SDS011;65197;50.164;8.012;2024-02-26T01:53:17;1.27;;;0.98;;
76373;SDS011;65197;50.164;8.012;2024-02-26T01:55:44;1.13;;;0.70;;
76373;SDS011;65197;50.164;8.012;2024-02-26T01:58:09;1.80;;;1.08;;
76373;SDS011;65197;50.164;8.012;2024-02-26T02:00:36;1.48;;;0.90;;
76373;SDS011;65197;50.164;8.012;2024-02-26T02:03:02;1.10;;;1.00;;
76373;SDS011;65197;50.164;8.012;2024-02-26T02:05:28;2.15;;;1.13;;
76373;SDS011;65197;50.164;8.012;2024-02-26T02:07:54;2.90;;;1.13;;
76373;SDS011;65197;50.164;8.012;2024-02-26T02:10:20;1.65;;;1.05;;
76373;SDS011;65197;50.164;8.012;2024-02-26T02:12:50;2.30;;;1.10;;
76373;SDS011;65197;50.164;8.012;2024-02-26T02:15:16;2.38;;;0.98;;
76373;SDS011;65197;50.164;8.012;2024-02-26T02:17:42;1.60;;;1.02;;
76373;SDS011;65197;50.164;8.012;2024-02-26T02:20:08;2.20;;;1.30;;
76373;SDS011;65197;50.164;8.012;2024-02-26T02:22:34;2.20;;;1.30;;
76373;SDS011;65197;50.164;8.012;2024-02-26T02:25:00;1.90;;;1.30;;
76373;SDS011;65197;50.164;8.012;2024-02-26T02:27:25;1.77;;;1.40;;
76373;SDS011;65197;50.164;8.012;2024-02-26T02:29:52;3.17;;;1.40;;
76373;SDS011;65197;50.164;8.012;2024-02-26T02:32:18;1.70;;;1.20;;
76373;SDS011;65197;50.164;8.012;2024-02-26T02:34:44;1.90;;;1.23;;
76373;SDS011;65197;50.164;8.012;2024-02-26T02:37:10;3.33;;;1.40;;
76373;SDS011;65197;50.164;8.012;2024-02-26T02:39:36;2.25;;;1.48;;
76373;SDS011;65197;50.164;8.012;2024-02-26T02:42:01;1.70;;;1.33;;
76373;SDS011;65197;50.164;8.012;2024-02-26T02:44:27;2.90;;;1.45;;
76373;SDS011;65197;50.164;8.012;2024-02-26T02:46:52;1.88;;;1.25;;
76373;SDS011;65197;50.164;8.012;2024-02-26T02:49:18;3.53;;;1.73;;
76373;SDS011;65197;50.164;8.012;2024-02-26T02:51:44;2.28;;;1.50;;
76373;SDS011;65197;50.164;8.012;2024-02-26T02:54:09;2.00;;;1.38;;
76373;SDS011;65197;50.164;8.012;2024-02-26T02:56:34;3.83;;;2.10;;
76373;SDS011;65197;50.164;8.012;2024-02-26T02:59:00;2.70;;;1.60;;
76373;SDS011;65197;50.164;8.012;2024-02-26T03:01:26;2.15;;;1.30;;
76373;SDS011;65197;50.164;8.012;2024-02-26T03:03:52;3.33;;;1.63;;
76373;SDS011;65197;50.164;8.012;2024-02-26T03:06:17;4.35;;;1.50;;
76373;SDS011;65197;50.164;8.012;2024-02-26T03:08:42;2.55;;;1.70;;
76373;SDS011;65197;50.164;8.012;2024-02-26T03:11:12;2.20;;;1.52;;
76373;SDS011;65197;50.164;8.012;2024-02-26T03:13:38;2.28;;;1.63;;
76373;SDS011;65197;50.164;8.012;2024-02-26T03:16:04;3.58;;;1.95;;
76373;SDS011;65197;50.164;8.012;2024-02-26T03:18:30;3.15;;;2.10;;
76373;SDS011;65197;50.164;8.012;2024-02-26T03:20:56;2.67;;;1.50;;
76373;SDS011;65197;50.164;8.012;2024-02-26T03:23:21;3.38;;;1.83;;
76373;SDS011;65197;50.164;8.012;2024-02-26T03:25:47;2.97;;;1.63;;
76373;SDS011;65197;50.164;8.012;2024-02-26T03:28:12;2.80;;;1.90;;
76373;SDS011;65197;50.164;8.012;2024-02-26T03:30:38;2.42;;;1.70;;
76373;SDS011;65197;50.164;8.012;2024-02-26T03:33:03;2.67;;;1.70;;
76373;SDS011;65197;50.164;8.012;2024-02-26T03:35:29;2.38;;;1.42;;
76373;SDS011;65197;50.164;8.012;2024-02-26T03:37:54;2.13;;;1.52;;
76373;SDS011;65197;50.164;8.012;2024-02-26T03:40:20;4.35;;;1.83;;
76373;SDS011;65197;50.164;8.012;2024-02-26T03:42:45;2.80;;;1.80;;
76373;SDS011;65197;50.164;8.012;2024-02-26T03:45:11;1.80;;;1.33;;
76373;SDS011;65197;50.164;8.012;2024-02-26T03:47:37;1.75;;;1.25;;
76373;SDS011;65197;50.164;8.012;2024-02-26T03:50:05;2.47;;;1.30;;
76373;SDS011;65197;50.164;8.012;2024-02-26T03:52:31;1.83;;;1.40;;
76373;SDS011;65197;50.164;8.012;2024-02-26T03:54:57;2.33;;;1.42;;
76373;SDS011;65197;50.164;8.012;2024-02-26T03:57:22;2.33;;;1.40;;
76373;SDS011;65197;50.164;8.012;2024-02-26T03:59:47;1.67;;;1.38;;
76373;SDS011;65197;50.164;8.012;2024-02-26T04:02:13;4.25;;;1.70;;
76373;SDS011;65197;50.164;8.012;2024-02-26T04:04:38;2.72;;;1.63;;
76373;SDS011;65197;50.164;8.012;2024-02-26T04:07:04;2.65;;;1.67;;
76373;SDS011;65197;50.164;8.012;2024-02-26T04:09:31;2.95;;;1.63;;
76373;SDS011;65197;50.164;8.012;2024-02-26T04:11:56;3.00;;;1.77;;
76373;SDS011;65197;50.164;8.012;2024-02-26T04:14:22;2.78;;;1.88;;
76373;SDS011;65197;50.164;8.012;2024-02-26T04:16:47;3.22;;;1.73;;
76373;SDS011;65197;50.164;8.012;2024-02-26T04:19:16;3.70;;;1.92;;
76373;SDS011;65197;50.164;8.012;2024-02-26T04:21:42;4.22;;;2.60;;
76373;SDS011;65197;50.164;8.012;2024-02-26T04:24:07;4.00;;;2.35;;
76373;SDS011;65197;50.164;8.012;2024-02-26T04:26:32;3.97;;;1.98;;
76373;SDS011;65197;50.164;8.012;2024-02-26T04:28:58;3.30;;;2.30;;
76373;SDS011;65197;50.164;8.012;2024-02-26T04:31:23;2.75;;;1.92;;
76373;SDS011;65197;50.164;8.012;2024-02-26T04:33:49;3.15;;;2.50;;
76373;SDS011;65197;50.164;8.012;2024-02-26T04:36:14;6.28;;;2.55;;
76373;SDS011;65197;50.164;8.012;2024-02-26T04:38:41;4.55;;;2.55;;
76373;SDS011;65197;50.164;8.012;2024-02-26T04:41:07;4.32;;;3.08;;
76373;SDS011;65197;50.164;8.012;2024-02-26T04:43:32;4.18;;;2.50;;
76373;SDS011;65197;50.164;8.012;2024-02-26T04:45:58;5.38;;;2.83;;
76373;SDS011;65197;50.164;8.012;2024-02-26T04:48:23;3.72;;;2.58;;
76373;SDS011;65197;50.164;8.012;2024-02-26T04:50:49;3.60;;;2.53;;
76373;SDS011;65197;50.164;8.012;2024-02-26T04:53:14;4.47;;;2.88;;
76373;SDS011;65197;50.164;8.012;2024-02-26T04:55:39;5.10;;;2.72;;
76373;SDS011;65197;50.164;8.012;2024-02-26T04:58:05;4.32;;;2.53;;
76373;SDS011;65197;50.164;8.012;2024-02-26T05:00:30;5.13;;;2.97;;
76373;SDS011;65197;50.164;8.012;2024-02-26T05:02:55;5.38;;;3.15;;
76373;SDS011;65197;50.164;8.012;2024-02-26T05:05:21;5.38;;;3.38;;
76373;SDS011;65197;50.164;8.012;2024-02-26T05:07:47;5.75;;;3.35;;
76373;SDS011;65197;50.164;8.012;2024-02-26T05:10:12;5.75;;;3.22;;
76373;SDS011;65197;50.164;8.012;2024-02-26T05:12:37;5.47;;;3.63;;
76373;SDS011;65197;50.164;8.012;2024-02-26T05:15:03;5.00;;;3.05;;
76373;SDS011;65197;50.164;8.012;2024-02-26T05:17:29;5.38;;;3.20;;
76373;SDS011;65197;50.164;8.012;2024-02-26T05:19:54;5.22;;;3.00;;
76373;SDS011;65197;50.164;8.012;2024-02-26T05:22:20;5.55;;;3.85;;
76373;SDS011;65197;50.164;8.012;2024-02-26T05:24:45;5.70;;;3.92;;
76373;SDS011;65197;50.164;8.012;2024-02-26T05:27:10;6.00;;;3.42;;
76373;SDS011;65197;50.164;8.012;2024-02-26T05:29:37;7.35;;;4.10;;
76373;SDS011;65197;50.164;8.012;2024-02-26T05:32:03;6.72;;;3.97;;
76373;SDS011;65197;50.164;8.012;2024-02-26T05:34:29;6.25;;;3.70;;
76373;SDS011;65197;50.164;8.012;2024-02-26T05:36:55;8.02;;;3.88;;
76373;SDS011;65197;50.164;8.012;2024-02-26T05:39:20;6.32;;;3.90;;
76373;SDS011;65197;50.164;8.012;2024-02-26T05:41:46;6.80;;;4.35;;
76373;SDS011;65197;50.164;8.012;2024-02-26T05:44:11;6.18;;;3.63;;
76373;SDS011;65197;50.164;8.012;2024-02-26T05:46:37;6.35;;;4.05;;
76373;SDS011;65197;50.164;8.012;2024-02-26T05:49:02;7.03;;;4.22;;
76373;SDS011;65197;50.164;8.012;2024-02-26T05:51:28;8.80;;;4.78;;
76373;SDS011;65197;50.164;8.012;2024-02-26T05:53:53;8.20;;;4.97;;
76373;SDS011;65197;50.164;8.012;2024-02-26T05:56:20;10.05;;;5.30;;
76373;SDS011;65197;50.164;8.012;2024-02-26T05:58:49;10.85;;;6.05;;
76373;SDS011;65197;50.164;8.012;2024-02-26T06:01:15;10.50;;;6.20;;
76373;SDS011;65197;50.164;8.012;2024-02-26T06:03:42;10.82;;;6.53;;
76373;SDS011;65197;50.164;8.012;2024-02-26T06:06:08;12.30;;;7.05;;
76373;SDS011;65197;50.164;8.012;2024-02-26T06:08:33;10.32;;;6.63;;
76373;SDS011;65197;50.164;8.012;2024-02-26T06:10:58;12.23;;;6.93;;
76373;SDS011;65197;50.164;8.012;2024-02-26T06:13:25;13.15;;;7.68;;
76373;SDS011;65197;50.164;8.012;2024-02-26T06:15:51;13.80;;;7.95;;
76373;SDS011;65197;50.164;8.012;2024-02-26T06:18:16;15.35;;;8.82;;
76373;SDS011;65197;50.164;8.012;2024-02-26T06:20:41;14.25;;;7.97;;
76373;SDS011;65197;50.164;8.012;2024-02-26T06:23:07;13.95;;;8.57;;
76373;SDS011;65197;50.164;8.012;2024-02-26T06:25:32;15.45;;;8.80;;
76373;SDS011;65197;50.164;8.012;2024-02-26T06:27:58;14.30;;;9.15;;
76373;SDS011;65197;50.164;8.012;2024-02-26T06:30:23;13.70;;;7.97;;
76373;SDS011;65197;50.164;8.012;2024-02-26T06:32:48;13.85;;;8.52;;
76373;SDS011;65197;50.164;8.012;2024-02-26T06:35:14;15.48;;;8.52;;
76373;SDS011;65197;50.164;8.012;2024-02-26T06:37:39;13.63;;;7.78;;
76373;SDS011;65197;50.164;8.012;2024-02-26T06:40:05;14.25;;;7.90;;
76373;SDS011;65197;50.164;8.012;2024-02-26T06:42:31;14.48;;;9.05;;
76373;SDS011;65197;50.164;8.012;2024-02-26T06:44:57;14.45;;;8.60;;
76373;SDS011;65197;50.164;8.012;2024-02-26T06:47:23;16.45;;;8.73;;
76373;SDS011;65197;50.164;8.012;2024-02-26T06:49:48;16.45;;;9.23;;
76373;SDS011;65197;50.164;8.012;2024-02-26T06:52:15;12.82;;;8.07;;
76373;SDS011;65197;50.164;8.012;2024-02-26T06:54:40;12.07;;;7.68;;
76373;SDS011;65197;50.164;8.012;2024-02-26T06:57:06;12.73;;;7.35;;
76373;SDS011;65197;50.164;8.012;2024-02-26T06:59:31;13.52;;;7.53;;
76373;SDS011;65197;50.164;8.012;2024-02-26T07:01:57;12.07;;;7.20;;
76373;SDS011;65197;50.164;8.012;2024-02-26T07:04:22;11.80;;;6.93;;
76373;SDS011;65197;50.164;8.012;2024-02-26T07:06:48;12.27;;;7.18;;
76373;SDS011;65197;50.164;8.012;2024-02-26T07:09:13;9.32;;;5.88;;
76373;SDS011;65197;50.164;8.012;2024-02-26T07:11:38;11.68;;;6.55;;
76373;SDS011;65197;50.164;8.012;2024-02-26T07:14:07;9.60;;;5.43;;
76373;SDS011;65197;50.164;8.012;2024-02-26T07:16:33;9.55;;;6.13;;
76373;SDS011;65197;50.164;8.012;2024-02-26T07:18:59;8.85;;;5.57;;
76373;SDS011;65197;50.164;8.012;2024-02-26T07:21:24;8.48;;;5.55;;
76373;SDS011;65197;50.164;8.012;2024-02-26T07:23:49;7.78;;;4.85;;
76373;SDS011;65197;50.164;8.012;2024-02-26T07:26:15;8.13;;;4.93;;
76373;SDS011;65197;50.164;8.012;2024-02-26T07:28:42;7.10;;;4.38;;
76373;SDS011;65197;50.164;8.012;2024-02-26T07:31:07;11.75;;;6.13;;
76373;SDS011;65197;50.164;8.012;2024-02-26T07:33:33;9.48;;;5.10;;
76373;SDS011;65197;50.164;8.012;2024-02-26T07:35:58;7.70;;;5.05;;
76373;SDS011;65197;50.164;8.012;2024-02-26T07:38:24;6.60;;;4.38;;
76373;SDS011;65197;50.164;8.012;2024-02-26T07:40:49;8.27;;;4.78;;
76373;SDS011;65197;50.164;8.012;2024-02-26T07:43:15;11.07;;;5.38;;
76373;SDS011;65197;50.164;8.012;2024-02-26T07:45:42;7.60;;;4.78;;
76373;SDS011;65197;50.164;8.012;2024-02-26T07:48:07;10.15;;;5.32;;
76373;SDS011;65197;50.164;8.012;2024-02-26T07:50:33;9.65;;;5.95;;
76373;SDS011;65197;50.164;8.012;2024-02-26T07:52:59;9.85;;;6.45;;
76373;SDS011;65197;50.164;8.012;2024-02-26T07:55:25;10.75;;;6.25;;
76373;SDS011;65197;50.164;8.012;2024-02-26T07:57:50;11.93;;;6.60;;
76373;SDS011;65197;50.164;8.012;2024-02-26T08:00:16;11.00;;;7.20;;
76373;SDS011;65197;50.164;8.012;2024-02-26T08:02:42;8.20;;;4.97;;
76373;SDS011;65197;50.164;8.012;2024-02-26T08:05:09;14.40;;;6.45;;
76373;SDS011;65197;50.164;8.012;2024-02-26T08:07:34;11.48;;;4.70;;
76373;SDS011;65197;50.164;8.012;2024-02-26T08:09:59;10.70;;;6.70;;
76373;SDS011;65197;50.164;8.012;2024-02-26T08:12:25;14.52;;;7.20;;
76373;SDS011;65197;50.164;8.012;2024-02-26T08:14:51;12.55;;;7.53;;
76373;SDS011;65197;50.164;8.012;2024-02-26T08:17:16;10.77;;;6.50;;
76373;SDS011;65197;50.164;8.012;2024-02-26T08:19:42;15.60;;;7.55;;
76373;SDS011;65197;50.164;8.012;2024-02-26T08:22:07;14.35;;;7.30;;
76373;SDS011;65197;50.164;8.012;2024-02-26T08:24:32;12.10;;;7.30;;
76373;SDS011;65197;50.164;8.012;2024-02-26T08:26:58;13.55;;;6.72;;
76373;SDS011;65197;50.164;8.012;2024-02-26T08:29:23;11.57;;;6.40;;
76373;SDS011;65197;50.164;8.012;2024-02-26T08:31:49;10.13;;;6.05;;
76373;SDS011;65197;50.164;8.012;2024-02-26T08:34:15;13.38;;;6.80;;
76373;SDS011;65197;50.164;8.012;2024-02-26T08:36:40;11.27;;;6.43;;
76373;SDS011;65197;50.164;8.012;2024-02-26T08:39:08;8.57;;;5.43;;
76373;SDS011;65197;50.164;8.012;2024-02-26T08:41:34;9.05;;;5.15;;
76373;SDS011;65197;50.164;8.012;2024-02-26T08:43:59;10.30;;;6.07;;
76373;SDS011;65197;50.164;8.012;2024-02-26T08:46:24;27.70;;;8.70;;
76373;SDS011;65197;50.164;8.012;2024-02-26T08:48:50;13.50;;;6.97;;
76373;SDS011;65197;50.164;8.012;2024-02-26T08:51:15;22.05;;;8.43;;
76373;SDS011;65197;50.164;8.012;2024-02-26T08:53:41;16.45;;;8.25;;
76373;SDS011;65197;50.164;8.012;2024-02-26T08:56:06;14.85;;;8.10;;
76373;SDS011;65197;50.164;8.012;2024-02-26T08:58:31;21.88;;;7.32;;
76373;SDS011;65197;50.164;8.012;2024-02-26T09:00:57;45.25;;;10.57;;
76373;SDS011;65197;50.164;8.012;2024-02-26T09:03:22;32.40;;;9.70;;
76373;SDS011;65197;50.164;8.012;2024-02-26T09:05:48;25.05;;;8.80;;
76373;SDS011;65197;50.164;8.012;2024-02-26T09:08:13;77.13;;;13.95;;
76373;SDS011;65197;50.164;8.012;2024-02-26T09:10:39;78.63;;;13.65;;
76373;SDS011;65197;50.164;8.012;2024-02-26T09:13:05;125.47;;;17.30;;
76373;SDS011;65197;50.164;8.012;2024-02-26T09:15:30;140.45;;;18.73;;
76373;SDS011;65197;50.164;8.012;2024-02-26T09:17:56;77.90;;;12.43;;
76373;SDS011;65197;50.164;8.012;2024-02-26T09:20:21;59.20;;;10.15;;
76373;SDS011;65197;50.164;8.012;2024-02-26T09:22:48;46.17;;;10.07;;
76373;SDS011;65197;50.164;8.012;2024-02-26T09:25:14;60.13;;;10.93;;
76373;SDS011;65197;50.164;8.012;2024-02-26T09:27:46;133.43;;;17.95;;
76373;SDS011;65197;50.164;8.012;2024-02-26T09:30:12;86.07;;;14.75;;
76373;SDS011;65197;50.164;8.012;2024-02-26T09:32:38;105.97;;;16.67;;
76373;SDS011;65197;50.164;8.012;2024-02-26T09:35:05;126.18;;;15.52;;
76373;SDS011;65197;50.164;8.012;2024-02-26T09:37:31;70.15;;;12.82;;
76373;SDS011;65197;50.164;8.012;2024-02-26T09:39:58;220.23;;;23.48;;
76373;SDS011;65197;50.164;8.012;2024-02-26T09:42:25;123.85;;;16.98;;
76373;SDS011;65197;50.164;8.012;2024-02-26T09:44:53;283.05;;;28.90;;
76373;SDS011;65197;50.164;8.012;2024-02-26T09:47:20;142.82;;;18.33;;
76373;SDS011;65197;50.164;8.012;2024-02-26T09:49:48;103.72;;;14.73;;
76373;SDS011;65197;50.164;8.012;2024-02-26T09:52:16;163.05;;;20.23;;
76373;SDS011;65197;50.164;8.012;2024-02-26T09:54:47;287.05;;;29.33;;
76373;SDS011;65197;50.164;8.012;2024-02-26T09:57:13;49.50;;;10.55;;
76373;SDS011;65197;50.164;8.012;2024-02-26T09:59:42;43.67;;;10.82;;
76373;SDS011;65197;50.164;8.012;2024-02-26T10:02:12;61.50;;;11.73;;
76373;SDS011;65197;50.164;8.012;2024-02-26T10:04:41;184.05;;;21.58;;
76373;SDS011;65197;50.164;8.012;2024-02-26T10:07:12;264.63;;;28.58;;
76373;SDS011;65197;50.164;8.012;2024-02-26T10:09:54;108.95;;;15.00;;
76373;SDS011;65197;50.164;8.012;2024-02-26T10:12:20;94.75;;;14.00;;
76373;SDS011;65197;50.164;8.012;2024-02-26T10:14:46;84.43;;;14.90;;
76373;SDS011;65197;50.164;8.012;2024-02-26T10:17:12;41.35;;;11.55;;
76373;SDS011;65197;50.164;8.012;2024-02-26T10:19:37;101.03;;;15.98;;
76373;SDS011;65197;50.164;8.012;2024-02-26T10:22:03;274.35;;;35.15;;
76373;SDS011;65197;50.164;8.012;2024-02-26T10:24:29;216.18;;;26.05;;
76373;SDS011;65197;50.164;8.012;2024-02-26T10:26:55;89.20;;;14.48;;
76373;SDS011;65197;50.164;8.012;2024-02-26T10:29:23;35.05;;;11.40;;
76373;SDS011;65197;50.164;8.012;2024-02-26T10:31:50;14.77;;;9.05;;
76373;SDS011;65197;50.164;8.012;2024-02-26T10:34:16;13.85;;;8.05;;
76373;SDS011;65197;50.164;8.012;2024-02-26T10:36:43;18.13;;;8.82;;
76373;SDS011;65197;50.164;8.012;2024-02-26T10:39:12;16.42;;;8.52;;
76373;SDS011;65197;50.164;8.012;2024-02-26T10:41:39;15.60;;;8.40;;
76373;SDS011;65197;50.164;8.012;2024-02-26T10:44:06;14.32;;;8.13;;
76373;SDS011;65197;50.164;8.012;2024-02-26T10:46:34;13.93;;;8.35;;
76373;SDS011;65197;50.164;8.012;2024-02-26T10:49:00;13.52;;;8.45;;
76373;SDS011;65197;50.164;8.012;2024-02-26T10:51:28;13.15;;;7.80;;
76373;SDS011;65197;50.164;8.012;2024-02-26T10:53:55;13.23;;;7.72;;
76373;SDS011;65197;50.164;8.012;2024-02-26T10:56:24;12.68;;;7.18;;
76373;SDS011;65197;50.164;8.012;2024-02-26T10:58:52;10.23;;;6.55;;
76373;SDS011;65197;50.164;8.012;2024-02-26T11:01:18;10.32;;;6.65;;
76373;SDS011;65197;50.164;8.012;2024-02-26T11:03:45;13.13;;;6.88;;
76373;SDS011;65197;50.164;8.012;2024-02-26T11:06:11;13.25;;;7.20;;
76373;SDS011;65197;50.164;8.012;2024-02-26T11:08:37;9.40;;;5.72;;
76373;SDS011;65197;50.164;8.012;2024-02-26T11:11:03;9.18;;;5.88;;
76373;SDS011;65197;50.164;8.012;2024-02-26T11:13:30;11.30;;;5.60;;
76373;SDS011;65197;50.164;8.012;2024-02-26T11:15:56;7.55;;;4.90;;
76373;SDS011;65197;50.164;8.012;2024-02-26T11:18:26;9.25;;;5.35;;
76373;SDS011;65197;50.164;8.012;2024-02-26T11:20:52;6.25;;;4.07;;
76373;SDS011;65197;50.164;8.012;2024-02-26T11:23:22;12.85;;;5.82;;
76373;SDS011;65197;50.164;8.012;2024-02-26T11:25:48;6.65;;;4.22;;
76373;SDS011;65197;50.164;8.012;2024-02-26T11:28:16;6.30;;;4.40;;
76373;SDS011;65197;50.164;8.012;2024-02-26T11:30:45;6.60;;;4.30;;
76373;SDS011;65197;50.164;8.012;2024-02-26T11:33:13;5.95;;;4.18;;
76373;SDS011;65197;50.164;8.012;2024-02-26T11:35:40;6.55;;;4.18;;
76373;SDS011;65197;50.164;8.012;2024-02-26T11:38:05;7.80;;;5.30;;
76373;SDS011;65197;50.164;8.012;2024-02-26T11:40:32;6.30;;;4.22;;
76373;SDS011;65197;50.164;8.012;2024-02-26T11:43:00;8.48;;;4.90;;
76373;SDS011;65197;50.164;8.012;2024-02-26T11:45:47;6.53;;;4.50;;
76373;SDS011;65197;50.164;8.012;2024-02-26T11:48:15;9.40;;;5.10;;
76373;SDS011;65197;50.164;8.012;2024-02-26T11:50:45;5.88;;;3.97;;
76373;SDS011;65197;50.164;8.012;2024-02-26T11:55:48;7.75;;;4.00;;
76373;SDS011;65197;50.164;8.012;2024-02-26T11:58:34;4.95;;;3.35;;
76373;SDS011;65197;50.164;8.012;2024-02-26T12:00:59;5.60;;;3.38;;
76373;SDS011;65197;50.164;8.012;2024-02-26T12:03:24;5.70;;;3.22;;
76373;SDS011;65197;50.164;8.012;2024-02-26T12:05:51;5.35;;;3.67;;
76373;SDS011;65197;50.164;8.012;2024-02-26T12:08:16;7.65;;;4.22;;
76373;SDS011;65197;50.164;8.012;2024-02-26T12:10:44;7.78;;;4.22;;
76373;SDS011;65197;50.164;8.012;2024-02-26T12:13:15;5.53;;;3.97;;
76373;SDS011;65197;50.164;8.012;2024-02-26T12:15:45;6.45;;;4.07;;
76373;SDS011;65197;50.164;8.012;2024-02-26T12:18:17;7.28;;;4.18;;
76373;SDS011;65197;50.164;8.012;2024-02-26T12:20:43;8.27;;;3.72;;
76373;SDS011;65197;50.164;8.012;2024-02-26T12:23:15;6.03;;;3.30;;
76373;SDS011;65197;50.164;8.012;2024-02-26T12:25:42;4.45;;;3.15;;
76373;SDS011;65197;50.164;8.012;2024-02-26T12:28:09;4.43;;;3.08;;
76373;SDS011;65197;50.164;8.012;2024-02-26T12:30:34;4.68;;;3.33;;
76373;SDS011;65197;50.164;8.012;2024-02-26T12:33:00;6.28;;;3.60;;
76373;SDS011;65197;50.164;8.012;2024-02-26T12:35:29;5.63;;;3.53;;
76373;SDS011;65197;50.164;8.012;2024-02-26T12:37:57;6.38;;;3.45;;
76373;SDS011;65197;50.164;8.012;2024-02-26T12:40:23;4.68;;;3.13;;
76373;SDS011;65197;50.164;8.012;2024-02-26T12:42:49;5.72;;;3.30;;
76373;SDS011;65197;50.164;8.012;2024-02-26T12:45:14;7.22;;;3.22;;
76373;SDS011;65197;50.164;8.012;2024-02-26T12:47:41;4.15;;;3.13;;
76373;SDS011;65197;50.164;8.012;2024-02-26T12:50:08;5.50;;;3.08;;
76373;SDS011;65197;50.164;8.012;2024-02-26T12:52:35;5.53;;;2.88;;
76373;SDS011;65197;50.164;8.012;2024-02-26T12:55:11;4.45;;;2.97;;
76373;SDS011;65197;50.164;8.012;2024-02-26T12:57:40;5.50;;;2.80;;
76373;SDS011;65197;50.164;8.012;2024-02-26T13:00:08;4.30;;;2.50;;
76373;SDS011;65197;50.164;8.012;2024-02-26T13:02:39;5.03;;;2.60;;
76373;SDS011;65197;50.164;8.012;2024-02-26T13:05:07;3.83;;;2.78;;
76373;SDS011;65197;50.164;8.012;2024-02-26T13:07:33;3.15;;;2.25;;
76373;SDS011;65197;50.164;8.012;2024-02-26T13:09:59;3.38;;;1.95;;
76373;SDS011;65197;50.164;8.012;2024-02-26T13:12:25;3.67;;;2.40;;
76373;SDS011;65197;50.164;8.012;2024-02-26T13:15:00;3.33;;;2.00;;
76373;SDS011;65197;50.164;8.012;2024-02-26T13:17:26;2.90;;;1.92;;
76373;SDS011;65197;50.164;8.012;2024-02-26T13:19:52;3.35;;;1.83;;
76373;SDS011;65197;50.164;8.012;2024-02-26T13:22:20;5.00;;;2.95;;
76373;SDS011;65197;50.164;8.012;2024-02-26T13:24:53;5.72;;;3.50;;
76373;SDS011;65197;50.164;8.012;2024-02-26T13:27:22;2.80;;;2.00;;
76373;SDS011;65197;50.164;8.012;2024-02-26T13:30:01;4.13;;;2.42;;
76373;SDS011;65197;50.164;8.012;2024-02-26T13:32:34;5.75;;;2.90;;
76373;SDS011;65197;50.164;8.012;2024-02-26T13:35:07;5.43;;;3.15;;
76373;SDS011;65197;50.164;8.012;2024-02-26T13:37:35;4.93;;;2.80;;
76373;SDS011;65197;50.164;8.012;2024-02-26T13:40:04;6.57;;;3.13;;
76373;SDS011;65197;50.164;8.012;2024-02-26T13:42:34;4.53;;;2.92;;
76373;SDS011;65197;50.164;8.012;2024-02-26T13:45:00;4.10;;;2.13;;
76373;SDS011;65197;50.164;8.012;2024-02-26T13:47:26;2.78;;;1.92;;
76373;SDS011;65197;50.164;8.012;2024-02-26T13:49:51;2.90;;;2.15;;
76373;SDS011;65197;50.164;8.012;2024-02-26T13:52:17;4.15;;;2.22;;
76373;SDS011;65197;50.164;8.012;2024-02-26T13:54:42;3.80;;;2.63;;
76373;SDS011;65197;50.164;8.012;2024-02-26T13:57:09;4.30;;;2.67;;
76373;SDS011;65197;50.164;8.012;2024-02-26T13:59:34;4.20;;;2.70;;
76373;SDS011;65197;50.164;8.012;2024-02-26T14:02:00;5.57;;;3.55;;
76373;SDS011;65197;50.164;8.012;2024-02-26T14:04:25;7.10;;;3.70;;
76373;SDS011;65197;50.164;8.012;2024-02-26T14:06:50;7.00;;;4.43;;
76373;SDS011;65197;50.164;8.012;2024-02-26T14:09:16;6.88;;;4.63;;
76373;SDS011;65197;50.164;8.012;2024-02-26T14:11:46;8.13;;;5.13;;
76373;SDS011;65197;50.164;8.012;2024-02-26T14:14:12;9.27;;;5.53;;
76373;SDS011;65197;50.164;8.012;2024-02-26T14:16:37;15.93;;;8.70;;
76373;SDS011;65197;50.164;8.012;2024-02-26T14:19:03;9.15;;;6.38;;
76373;SDS011;65197;50.164;8.012;2024-02-26T14:21:28;7.85;;;5.53;;
76373;SDS011;65197;50.164;8.012;2024-02-26T14:23:57;9.40;;;4.88;;
76373;SDS011;65197;50.164;8.012;2024-02-26T14:26:22;9.25;;;5.25;;
76373;SDS011;65197;50.164;8.012;2024-02-26T14:28:48;8.15;;;5.03;;
76373;SDS011;65197;50.164;8.012;2024-02-26T14:31:16;7.68;;;5.53;;
76373;SDS011;65197;50.164;8.012;2024-02-26T14:33:42;7.43;;;4.88;;
76373;SDS011;65197;50.164;8.012;2024-02-26T14:36:08;7.43;;;4.85;;
76373;SDS011;65197;50.164;8.012;2024-02-26T14:38:34;8.60;;;5.35;;
76373;SDS011;65197;50.164;8.012;2024-02-26T14:40:59;7.63;;;5.63;;